createdAt,value
2022-10-05T00:02:52.735Z,68.67
2022-10-05T00:07:57.873Z,68.99
2022-10-05T00:12:59.703Z,68.99
2022-10-05T00:18:03.187Z,69.00
2022-10-05T00:23:10.992Z,69.56
2022-10-05T00:28:34.613Z,69.52
2022-10-05T00:33:36.476Z,69.50
2022-10-05T00:38:38.384Z,69.60
2022-10-05T00:44:19.774Z,70.61
2022-10-05T00:49:24.517Z,69.44
2022-10-05T00:54:54.716Z,70.54
2022-10-05T01:05:29.925Z,70.28
2022-10-05T01:10:43.993Z,70.23
2022-10-05T01:15:51.887Z,70.24
2022-10-05T01:21:24.651Z,70.84
2022-10-05T01:27:01.918Z,71.10
2022-10-05T01:32:30.327Z,70.76
2022-10-05T01:37:45.933Z,70.28
2022-10-05T01:43:18.968Z,70.89
2022-10-05T01:48:57.070Z,71.00
2022-10-05T01:54:02.033Z,70.24
2022-10-05T01:59:20.355Z,70.47
2022-10-05T02:05:01.107Z,71.05
2022-10-05T02:10:05.341Z,70.41
2022-10-05T02:15:23.338Z,70.89
2022-10-05T02:20:30.523Z,70.75
2022-10-05T02:25:38.873Z,70.88
2022-10-05T02:30:50.433Z,71.06
2022-10-05T02:35:53.049Z,70.87
2022-10-05T02:41:28.649Z,71.51
2022-10-05T02:47:05.570Z,71.62
2022-10-05T02:52:18.728Z,71.34
2022-10-05T02:57:42.755Z,71.86
2022-10-05T03:02:59.379Z,71.46
2022-10-05T03:08:20.138Z,72.04
2022-10-05T03:13:45.632Z,72.94
2022-10-05T03:19:06.957Z,72.08
2022-10-05T03:24:27.334Z,71.90
2022-10-05T03:29:50.831Z,71.71
2022-10-05T03:35:14.180Z,71.31
2022-10-05T03:40:36.739Z,71.42
2022-10-05T03:45:45.195Z,70.86
2022-10-05T03:50:55.765Z,70.82
2022-10-05T03:56:14.825Z,70.90
2022-10-05T04:01:22.730Z,70.68
2022-10-05T04:06:42.122Z,70.74
2022-10-05T04:11:51.021Z,70.41
2022-10-05T04:17:21.785Z,70.68
2022-10-05T04:22:33.751Z,70.32
2022-10-05T04:27:48.997Z,70.85
2022-10-05T04:32:54.921Z,70.67
2022-10-05T04:38:33.498Z,71.02
2022-10-05T04:44:00.240Z,71.42
2022-10-05T04:49:20.457Z,71.13
2022-10-05T04:54:52.784Z,71.12
2022-10-05T05:00:05.828Z,71.01
2022-10-05T05:05:28.602Z,71.13
2022-10-05T05:10:40.909Z,71.27
2022-10-05T05:16:06.975Z,71.69
2022-10-05T05:21:38.044Z,71.39
2022-10-05T05:27:11.740Z,71.66
2022-10-05T05:32:41.834Z,71.21
2022-10-05T05:37:58.654Z,71.37
2022-10-05T05:43:07.295Z,70.71
2022-10-05T05:48:19.191Z,70.68
2022-10-05T05:53:28.489Z,70.81
2022-10-05T05:58:45.847Z,70.91
2022-10-05T06:04:02.850Z,70.87
2022-10-05T06:09:14.475Z,70.69
2022-10-05T06:14:44.951Z,70.97
2022-10-05T06:19:49.059Z,70.40
2022-10-05T06:25:12.697Z,70.78
2022-10-05T06:30:18.475Z,70.22
2022-10-05T06:36:06.602Z,70.62
2022-10-05T06:41:21.265Z,69.96
2022-10-05T06:46:38.848Z,69.71
2022-10-05T06:51:58.381Z,69.49
2022-10-05T06:57:19.472Z,68.37
2022-10-05T07:02:32.518Z,65.88
2022-10-05T07:07:53.751Z,63.34
2022-10-05T07:13:08.152Z,61.06
2022-10-05T07:18:48.387Z,59.04
2022-10-05T07:24:09.204Z,57.97
2022-10-05T07:29:22.831Z,57.13
2022-10-05T07:35:04.541Z,55.35
2022-10-05T07:40:12.165Z,56.13
2022-10-05T07:45:17.154Z,55.91
2022-10-05T07:50:23.309Z,54.15
2022-10-05T07:55:45.179Z,53.03
2022-10-05T08:01:01.990Z,53.68
2022-10-05T08:06:10.339Z,53.90
2022-10-05T08:11:12.547Z,54.60
2022-10-05T08:16:16.867Z,55.70
2022-10-05T08:21:36.496Z,55.94
2022-10-05T08:27:00.028Z,56.29
2022-10-05T08:32:06.787Z,57.72
2022-10-05T08:37:18.819Z,58.04
2022-10-05T08:42:26.579Z,58.18
2022-10-05T08:47:37.686Z,59.10
2022-10-05T08:53:04.552Z,58.27
2022-10-05T08:58:52.739Z,58.26
2022-10-05T09:04:19.463Z,59.05
2022-10-05T09:09:47.493Z,58.86
2022-10-05T09:15:25.530Z,59.10
2022-10-05T09:21:02.949Z,59.03
2022-10-05T09:26:23.281Z,59.44
2022-10-05T09:31:53.457Z,59.88
2022-10-05T09:37:26.530Z,60.75
2022-10-05T09:42:40.603Z,59.88
2022-10-05T09:48:03.691Z,59.29
2022-10-05T09:53:24.422Z,57.28
2022-10-05T09:58:49.603Z,57.29
2022-10-05T10:04:10.309Z,55.81
2022-10-05T10:09:38.816Z,55.49
2022-10-05T10:15:18.319Z,54.65
2022-10-05T10:20:23.233Z,55.17
2022-10-05T10:25:31.853Z,54.52
2022-10-05T10:30:58.713Z,54.00
2022-10-05T10:36:32.911Z,53.63
2022-10-05T10:41:53.386Z,55.45
2022-10-05T10:47:18.320Z,55.40
2022-10-05T10:53:03.709Z,54.67
2022-10-05T10:58:38.406Z,54.24
2022-10-05T11:04:23.228Z,55.66
2022-10-05T11:09:38.282Z,55.88
2022-10-05T11:14:49.856Z,56.24
2022-10-05T11:20:35.291Z,55.64
2022-10-05T11:25:50.439Z,56.33
2022-10-05T11:31:26.288Z,55.75
2022-10-05T11:36:56.816Z,54.09
2022-10-05T11:42:13.385Z,55.50
2022-10-05T11:47:37.335Z,54.55
2022-10-05T11:52:47.061Z,55.78
2022-10-05T11:57:51.848Z,55.94
2022-10-05T12:03:23.686Z,55.58
2022-10-05T12:08:36.876Z,55.57
2022-10-05T12:14:01.528Z,55.43
2022-10-05T12:19:13.615Z,54.73
2022-10-05T12:24:27.152Z,57.19
2022-10-05T12:29:52.531Z,58.44
2022-10-05T12:35:04.744Z,58.99
2022-10-05T12:40:18.879Z,59.18
2022-10-05T12:45:37.665Z,59.72
2022-10-05T12:50:43.384Z,59.17
2022-10-05T12:56:04.158Z,59.07
2022-10-05T13:01:14.957Z,58.17
2022-10-05T13:06:33.694Z,58.59
2022-10-05T13:11:58.777Z,57.23
2022-10-05T13:17:12.544Z,59.13
2022-10-05T13:22:42.593Z,59.58
2022-10-05T13:27:52.609Z,59.62
2022-10-05T13:33:18.127Z,58.11
2022-10-05T13:38:43.080Z,60.10
2022-10-05T13:44:20.094Z,60.74
2022-10-05T13:49:31.997Z,59.91
2022-10-05T13:54:51.001Z,57.23
2022-10-05T14:00:01.561Z,59.26
2022-10-05T14:05:32.042Z,60.12
2022-10-05T14:10:39.979Z,59.84
2022-10-05T14:15:42.473Z,60.69
2022-10-05T14:21:18.267Z,60.46
2022-10-05T14:26:25.979Z,60.53
2022-10-05T14:31:37.001Z,61.27
2022-10-05T14:36:44.078Z,61.23
2022-10-05T14:41:49.191Z,61.56
2022-10-05T14:46:58.930Z,62.20
2022-10-05T14:52:21.849Z,62.24
2022-10-05T14:57:45.906Z,63.44
2022-10-05T15:03:22.829Z,62.86
2022-10-05T15:08:42.643Z,62.30
2022-10-05T15:13:48.675Z,63.16
2022-10-05T15:18:59.797Z,63.78
2022-10-05T15:24:41.267Z,64.22
2022-10-05T15:29:59.975Z,63.12
2022-10-05T15:35:24.471Z,63.12
2022-10-05T15:40:44.050Z,62.65
2022-10-05T15:46:04.271Z,62.62
2022-10-05T15:51:24.734Z,62.69
2022-10-05T15:56:34.309Z,62.52
2022-10-05T16:01:49.694Z,62.84
2022-10-05T16:07:19.692Z,62.67
2022-10-05T16:12:40.244Z,62.34
2022-10-05T16:18:01.537Z,62.68
2022-10-05T16:23:31.152Z,63.28
2022-10-05T16:28:53.018Z,63.29
2022-10-05T16:34:17.333Z,63.33
2022-10-05T16:39:44.930Z,63.71
2022-10-05T16:45:09.874Z,64.21
2022-10-05T16:50:20.983Z,63.92
2022-10-05T16:55:38.924Z,64.54
2022-10-05T17:01:16.430Z,64.79
2022-10-05T17:06:32.255Z,64.88
2022-10-05T17:11:34.288Z,64.60
2022-10-05T17:16:54.826Z,65.13
2022-10-05T17:22:15.594Z,64.66
2022-10-05T17:27:29.393Z,64.79
2022-10-05T17:32:36.871Z,65.14
2022-10-05T17:37:41.732Z,65.11
2022-10-05T17:42:43.730Z,65.41
2022-10-05T17:47:58.848Z,65.42
2022-10-05T17:53:40.844Z,65.91
2022-10-05T17:59:04.816Z,66.00
2022-10-05T18:04:12.462Z,65.90
2022-10-05T18:09:17.025Z,65.90
2022-10-05T18:14:27.130Z,66.28
2022-10-05T18:19:32.568Z,66.56
2022-10-05T18:25:15.920Z,67.42
2022-10-05T18:30:21.863Z,67.10
2022-10-05T18:35:46.889Z,67.85
2022-10-05T18:41:10.331Z,67.69
2022-10-05T18:46:15.182Z,67.71
2022-10-05T18:51:54.100Z,68.34
2022-10-05T18:56:55.989Z,67.84
2022-10-05T19:02:23.416Z,68.26
2022-10-05T19:07:46.168Z,68.25
2022-10-05T19:13:06.636Z,67.95
2022-10-05T19:18:23.941Z,67.75
2022-10-05T19:23:42.473Z,68.23
2022-10-05T19:28:44.394Z,67.88
2022-10-05T19:34:30.621Z,68.55
2022-10-05T19:39:58.814Z,68.65
2022-10-05T19:45:21.495Z,68.76
2022-10-05T19:50:23.465Z,68.30
2022-10-05T19:55:31.910Z,68.40
2022-10-05T20:00:35.474Z,68.50
2022-10-05T20:05:37.737Z,68.39
2022-10-05T20:10:39.864Z,68.54
2022-10-05T20:16:36.152Z,69.17
2022-10-05T20:21:47.562Z,68.78
2022-10-05T20:27:09.528Z,68.75
2022-10-05T20:32:18.079Z,68.57
2022-10-05T20:37:20.205Z,68.62
2022-10-05T20:42:24.021Z,68.59
2022-10-05T20:47:26.801Z,68.63
2022-10-05T20:52:29.446Z,68.71
2022-10-05T20:57:45.466Z,68.81
2022-10-05T21:03:18.722Z,68.61
2022-10-05T21:08:20.623Z,68.40
2022-10-05T21:17:09.613Z,68.47
2022-10-05T21:22:12.128Z,68.53
2022-10-05T21:27:26.188Z,68.65
2022-10-05T21:32:28.351Z,68.65
2022-10-05T21:37:30.242Z,68.85
2022-10-05T21:42:32.359Z,68.68
2022-10-05T21:47:34.742Z,68.68
2022-10-05T21:52:36.888Z,68.84
2022-10-05T21:57:39.116Z,68.75
2022-10-05T22:02:41.011Z,68.94
2022-10-05T22:07:42.922Z,68.93
2022-10-05T22:12:46.923Z,68.96
2022-10-05T22:17:48.793Z,68.98
2022-10-05T22:22:53.841Z,69.23
2022-10-05T22:27:55.885Z,69.22
2022-10-05T22:32:57.762Z,69.30
2022-10-05T22:38:03.438Z,69.44
2022-10-05T22:43:05.517Z,69.55
2022-10-05T22:48:07.549Z,69.52
2022-10-05T22:53:15.081Z,69.70
2022-10-05T22:58:18.022Z,69.58
2022-10-05T23:03:22.328Z,69.48
2022-10-05T23:08:24.543Z,69.52
2022-10-05T23:13:26.647Z,69.48
2022-10-05T23:18:29.088Z,69.46
2022-10-05T23:23:38.538Z,69.46
2022-10-05T23:28:46.405Z,69.60
2022-10-05T23:33:48.730Z,69.52
2022-10-05T23:38:51.427Z,69.79
2022-10-05T23:43:59.884Z,69.63
2022-10-05T23:49:01.782Z,69.62
2022-10-05T23:54:07.202Z,69.73
2022-10-05T23:59:09.399Z,69.79
